Time;durP1;ratioP1;P1;durP2;ratioP2;P2;SDS_P1;SDS_P2;PMS_P1;PMS_P2;Temp;Humidity;BMP_temperature;BMP_pressure;BME280_temperature;BME280_humidity;BME280_pressure;Samples;Min_cycle;Max_cycle;Signal;HPM_P1;HPM_P2
2024/01/29 00:02:25;;;;;;;10.30;4.85;;;;;;;5.13;100.00;102376.06;5072887;28;20127;-65
2024/01/29 00:05:13;;;;;;;12.43;5.05;;;;;;;5.16;100.00;102369.44;5061576;28;20114;-64
2024/01/29 00:08:01;;;;;;;9.13;4.88;;;;;;;5.18;100.00;102386.28;5066843;28;20057;-64
2024/01/29 00:10:49;;;;;;;10.18;5.07;;;;;;;5.18;100.00;102380.88;5037680;28;20057;-64
2024/01/29 00:13:37;;;;;;;9.75;4.80;;;;;;;5.15;100.00;102389.34;5059117;28;20079;-65
2024/01/29 00:16:25;;;;;;;8.38;4.60;;;;;;;5.12;100.00;102369.81;5047213;28;20132;-63
2024/01/29 00:19:13;;;;;;;11.02;5.20;;;;;;;5.10;100.00;102371.06;5052706;28;20053;-65
2024/01/29 00:22:02;;;;;;;10.07;5.20;;;;;;;5.08;100.00;102365.81;5051338;28;20076;-65
2024/01/29 00:24:50;;;;;;;8.25;4.70;;;;;;;5.06;100.00;102365.19;5054042;28;20127;-64
2024/01/29 00:27:38;;;;;;;10.18;5.10;;;;;;;5.05;100.00;102373.47;5024140;28;20071;-64
2024/01/29 00:30:26;;;;;;;12.02;4.75;;;;;;;5.05;100.00;102370.78;5037579;28;20049;-65
2024/01/29 00:33:14;;;;;;;9.57;5.00;;;;;;;5.05;100.00;102373.47;5052705;28;20049;-65
2024/01/29 00:36:03;;;;;;;10.30;4.95;;;;;;;5.05;100.00;102374.34;5055504;28;20131;-63
2024/01/29 00:38:51;;;;;;;9.52;4.75;;;;;;;5.05;100.00;102374.34;5040873;28;20057;-65
2024/01/29 00:41:39;;;;;;;9.05;4.90;;;;;;;5.05;100.00;102374.34;5022083;28;20084;-63
2024/01/29 00:44:27;;;;;;;10.55;5.38;;;;;;;5.03;100.00;102370.97;5022792;28;20056;-65
2024/01/29 00:47:16;;;;;;;7.63;4.32;;;;;;;4.99;100.00;102369.69;5036521;28;20092;-64
2024/01/29 00:50:05;;;;;;;11.68;4.78;;;;;;;5.01;100.00;102372.19;5053745;28;20135;-63
2024/01/29 00:52:53;;;;;;;11.13;5.43;;;;;;;5.00;100.00;102376.75;5063742;28;20120;-65
2024/01/29 00:55:43;;;;;;;9.57;5.00;;;;;;;5.00;100.00;102376.75;5051886;28;20108;-63
2024/01/29 00:58:31;;;;;;;9.88;4.90;;;;;;;5.01;100.00;102366.81;5061551;28;20320;-61
2024/01/29 01:01:19;;;;;;;11.60;5.05;;;;;;;5.01;100.00;102367.63;5043818;28;20048;-63
2024/01/29 01:04:08;;;;;;;12.45;5.45;;;;;;;5.02;100.00;102369.28;5028504;28;20505;-63
2024/01/29 01:06:56;;;;;;;8.80;4.65;;;;;;;5.03;100.00;102381.78;5033457;28;20049;-63
2024/01/29 01:09:44;;;;;;;12.10;5.35;;;;;;;5.02;100.00;102390.06;5055089;28;20505;-64
2024/01/29 01:12:32;;;;;;;11.77;5.32;;;;;;;5.01;100.00;102393.81;5052370;28;20056;-63
2024/01/29 01:15:20;;;;;;;10.60;4.97;;;;;;;4.99;100.00;102393.16;5055832;28;20041;-65
2024/01/29 01:18:08;;;;;;;10.25;5.35;;;;;;;4.98;100.00;102397.75;5072388;28;20048;-64
2024/01/29 01:20:56;;;;;;;9.43;4.80;;;;;;;5.00;100.00;102390.25;5055697;28;20221;-64
2024/01/29 01:23:44;;;;;;;9.40;5.00;;;;;;;5.02;100.00;102399.00;5070525;28;20052;-64
2024/01/29 01:26:32;;;;;;;12.20;5.63;;;;;;;5.00;100.00;102398.34;5039808;28;20055;-64
2024/01/29 01:29:20;;;;;;;8.20;4.40;;;;;;;5.00;100.00;102403.75;5055712;28;20385;-65
2024/01/29 01:32:08;;;;;;;10.23;5.32;;;;;;;5.00;100.00;102401.06;5070530;28;20170;-64
2024/01/29 01:34:56;;;;;;;11.50;5.07;;;;;;;4.99;100.00;102399.41;5071163;28;20049;-64
2024/01/29 01:37:44;;;;;;;10.73;4.82;;;;;;;4.99;100.00;102396.69;5057652;28;20355;-65
2024/01/29 01:40:33;;;;;;;11.95;5.30;;;;;;;4.99;100.00;102402.09;5071539;28;20112;-63
2024/01/29 01:43:25;;;;;;;11.48;4.95;;;;;;;4.98;100.00;102399.56;5056260;28;20044;-63
2024/01/29 01:46:23;;;;;;;8.82;4.93;;;;;;;4.96;100.00;102391.69;5060192;28;20044;-65
2024/01/29 01:49:11;;;;;;;10.07;5.35;;;;;;;4.95;100.00;102406.19;5041276;28;20490;-64
2024/01/29 01:51:59;;;;;;;10.88;4.90;;;;;;;4.94;100.00;102404.53;5040247;28;20072;-65
2024/01/29 01:54:48;;;;;;;8.50;4.80;;;;;;;4.95;100.00;102406.19;5027566;28;20041;-63
2024/01/29 01:57:37;;;;;;;11.60;5.22;;;;;;;4.95;100.00;102406.19;5043819;28;20033;-63
2024/01/29 02:00:26;;;;;;;12.00;5.47;;;;;;;4.93;100.00;102394.78;5059382;28;20045;-63
2024/01/29 02:03:14;;;;;;;9.90;4.72;;;;;;;4.93;100.00;102405.59;5049736;28;20063;-63
2024/01/29 02:06:03;;;;;;;10.98;5.30;;;;;;;4.93;100.00;102392.06;5065850;28;20052;-63
2024/01/29 02:08:51;;;;;;;10.65;4.78;;;;;;;4.93;100.00;102407.41;5079888;28;20122;-65
2024/01/29 02:11:39;;;;;;;10.10;4.60;;;;;;;4.93;100.00;102402.03;5045656;28;20048;-64
2024/01/29 02:14:27;;;;;;;11.43;4.90;;;;;;;4.93;100.00;102389.38;5072258;28;20044;-65
2024/01/29 02:17:15;;;;;;;10.90;4.90;;;;;;;4.92;100.00;102390.38;5059753;28;20106;-63
2024/01/29 02:20:04;;;;;;;12.23;5.30;;;;;;;4.92;100.00;102390.38;5057151;28;20048;-63
2024/01/29 02:22:52;;;;;;;10.13;5.45;;;;;;;4.88;100.00;102391.78;5060647;28;20044;-65
2024/01/29 02:25:40;;;;;;;11.07;5.40;;;;;;;4.85;100.00;102400.28;5073290;28;20055;-65
2024/01/29 02:28:28;;;;;;;9.45;5.18;;;;;;;4.85;100.00;102400.28;5075375;28;20050;-64
2024/01/29 02:31:16;;;;;;;10.90;5.32;;;;;;;4.84;100.00;102406.72;5052980;28;20049;-63
2024/01/29 02:34:04;;;;;;;10.15;4.93;;;;;;;4.85;100.00;102401.13;5072383;28;20528;-64
2024/01/29 02:36:53;;;;;;;11.98;4.97;;;;;;;4.87;100.00;102406.34;5058931;28;20146;-64
2024/01/29 02:39:41;;;;;;;8.90;4.88;;;;;;;4.89;100.00;102390.78;5041798;28;20116;-65
2024/01/29 02:42:29;;;;;;;8.93;5.10;;;;;;;4.89;100.00;102401.59;5071703;28;20186;-64
2024/01/29 02:45:17;;;;;;;9.93;4.70;;;;;;;4.87;100.00;102382.84;5057517;28;20083;-66
2024/01/29 02:48:05;;;;;;;12.27;5.05;;;;;;;4.85;100.00;102395.72;5072596;28;20469;-65
2024/01/29 02:50:53;;;;;;;8.98;5.07;;;;;;;4.87;100.00;102398.22;5056593;28;20052;-64
2024/01/29 02:53:41;;;;;;;9.75;5.10;;;;;;;4.88;100.00;102389.94;5059727;28;20049;-65
2024/01/29 02:56:29;;;;;;;13.45;5.18;;;;;;;4.88;100.00;102384.53;5054961;28;20044;-64
2024/01/29 02:59:17;;;;;;;9.68;4.97;;;;;;;4.88;100.00;102389.09;5072149;28;20137;-64
2024/01/29 03:02:07;;;;;;;9.40;4.95;;;;;;;4.87;100.00;102392.84;5073550;28;20049;-64
2024/01/29 03:04:55;;;;;;;10.23;5.10;;;;;;;4.86;100.00;102392.00;5070234;28;20044;-64
2024/01/29 03:07:43;;;;;;;10.45;5.25;;;;;;;4.85;100.00;102390.31;5092740;28;20044;-64
2024/01/29 03:10:32;;;;;;;9.15;4.90;;;;;;;4.87;100.00;102392.84;5073574;28;20127;-64
2024/01/29 03:13:20;;;;;;;9.68;4.90;;;;;;;4.87;100.00;102392.84;5072211;28;20386;-64
2024/01/29 03:16:08;;;;;;;9.05;4.88;;;;;;;4.86;100.00;102391.16;5055867;28;20415;-64
2024/01/29 03:18:56;;;;;;;8.23;4.70;;;;;;;4.85;100.00;102384.09;5063527;28;20516;-63
2024/01/29 03:21:45;;;;;;;8.65;4.88;;;;;;;4.84;100.00;102393.22;5050786;28;20044;-64
2024/01/29 03:24:33;;;;;;;11.32;5.25;;;;;;;4.82;100.00;102393.41;5038458;28;20144;-65
2024/01/29 03:27:21;;;;;;;10.98;5.38;;;;;;;4.82;100.00;102389.88;5034918;28;20041;-64
2024/01/29 03:30:09;;;;;;;9.93;5.40;;;;;;;4.81;100.00;102388.19;5052676;28;20432;-63
2024/01/29 03:32:57;;;;;;;9.57;4.70;;;;;;;4.80;100.00;102386.53;5069233;28;20409;-64
2024/01/29 03:35:45;;;;;;;9.60;5.25;;;;;;;4.82;100.00;102389.88;5056939;28;20435;-63
2024/01/29 03:38:34;;;;;;;8.63;4.70;;;;;;;4.83;100.00;102391.53;5031337;28;20054;-63
2024/01/29 03:41:22;;;;;;;10.23;5.15;;;;;;;4.85;100.00;102400.28;5048052;28;20556;-63
2024/01/29 03:44:10;;;;;;;11.05;5.43;;;;;;;4.84;100.00;102401.31;5057665;28;20040;-63
2024/01/29 03:46:58;;;;;;;9.27;5.22;;;;;;;4.82;100.00;102397.97;5050003;28;20036;-66
2024/01/29 03:49:46;;;;;;;9.18;5.25;;;;;;;4.79;100.00;102412.69;5022422;28;20143;-62
2024/01/29 03:52:34;;;;;;;10.80;5.10;;;;;;;4.80;100.00;102416.22;5017014;28;20148;-64
2024/01/29 03:55:22;;;;;;;9.05;4.95;;;;;;;4.79;100.00;102403.75;5021927;28;20131;-66
2024/01/29 03:58:11;;;;;;;12.15;6.00;;;;;;;4.80;100.00;102413.53;5032316;28;20434;-64
2024/01/29 04:00:59;;;;;;;10.57;5.57;;;;;;;4.78;100.00;102410.16;5029000;28;20041;-63
2024/01/29 04:03:47;;;;;;;10.70;5.63;;;;;;;4.79;100.00;102401.06;5044030;28;20195;-64
2024/01/29 04:06:36;;;;;;;9.60;5.03;;;;;;;4.79;100.00;102401.88;5052473;28;20080;-65
2024/01/29 04:09:24;;;;;;;9.45;5.25;;;;;;;4.78;100.00;102412.88;5063188;28;20052;-64
2024/01/29 04:12:12;;;;;;;9.80;4.80;;;;;;;4.78;100.00;102396.66;5044788;28;20052;-64
2024/01/29 04:15:00;;;;;;;11.75;5.60;;;;;;;4.80;100.00;102402.72;5072141;28;20044;-62
2024/01/29 04:17:48;;;;;;;10.70;5.38;;;;;;;4.79;100.00;102406.47;5073047;28;20048;-64
2024/01/29 04:20:36;;;;;;;9.90;5.35;;;;;;;4.80;100.00;102408.13;5071871;28;20048;-63
2024/01/29 04:23:24;;;;;;;9.27;4.90;;;;;;;4.80;100.00;102408.13;5075105;28;20555;-61
2024/01/29 04:26:12;;;;;;;9.75;5.00;;;;;;;4.79;100.00;102411.88;5091746;28;20055;-63
2024/01/29 04:29:00;;;;;;;8.70;5.05;;;;;;;4.79;100.00;102406.47;5069633;28;20049;-64
2024/01/29 04:31:48;;;;;;;8.85;5.20;;;;;;;4.80;100.00;102408.13;5070392;28;20054;-63
2024/01/29 04:34:36;;;;;;;10.68;5.18;;;;;;;4.79;100.00;102410.00;5056671;28;20049;-64
2024/01/29 04:37:24;;;;;;;9.38;5.22;;;;;;;4.79;100.00;102417.25;5055776;28;20280;-63
2024/01/29 04:40:13;;;;;;;8.68;4.97;;;;;;;4.76;100.00;102414.91;5057560;28;20040;-64
2024/01/29 04:43:01;;;;;;;11.23;5.75;;;;;;;4.76;100.00;102414.91;5076276;28;20051;-65
2024/01/29 04:45:49;;;;;;;14.90;5.45;;;;;;;4.78;100.00;102411.00;5084627;28;20109;-63
2024/01/29 04:48:38;;;;;;;9.85;5.53;;;;;;;4.74;100.00;102419.66;5068353;28;20508;-64
2024/01/29 04:51:27;;;;;;;10.50;5.72;;;;;;;4.75;100.00;102410.56;5042448;28;20172;-63
2024/01/29 04:54:15;;;;;;;9.40;5.30;;;;;;;4.73;100.00;102413.44;5070969;28;20040;-64
2024/01/29 04:57:03;;;;;;;12.52;5.57;;;;;;;4.72;100.00;102419.06;5070699;28;20574;-64
2024/01/29 04:59:51;;;;;;;8.45;5.03;;;;;;;4.73;100.00;102418.00;5071213;28;20143;-63
2024/01/29 05:02:39;;;;;;;8.00;4.65;;;;;;;4.72;100.00;102413.66;5071670;28;20157;-64
2024/01/29 05:05:27;;;;;;;8.85;4.95;;;;;;;4.70;100.00;102414.66;5071119;28;20420;-65
2024/01/29 05:08:15;;;;;;;9.23;5.10;;;;;;;4.68;100.00;102403.22;5055990;28;20060;-64
2024/01/29 05:11:03;;;;;;;12.45;5.47;;;;;;;4.68;100.00;102411.31;5076108;28;20134;-63
2024/01/29 05:13:53;;;;;;;9.15;5.18;;;;;;;4.66;100.00;102410.66;5071220;28;20529;-65
2024/01/29 05:16:41;;;;;;;10.38;5.35;;;;;;;4.65;100.00;102410.88;5078013;28;20449;-65
2024/01/29 05:19:29;;;;;;;9.02;5.05;;;;;;;4.65;100.00;102409.00;5080310;28;20107;-63
2024/01/29 05:22:17;;;;;;;9.63;5.15;;;;;;;4.65;100.00;102410.88;5067654;28;20151;-62
2024/01/29 05:25:05;;;;;;;10.15;5.20;;;;;;;4.62;100.00;102406.69;5078217;28;20040;-63
2024/01/29 05:27:53;;;;;;;12.50;5.55;;;;;;;4.61;100.00;102409.56;5078062;28;20055;-64
2024/01/29 05:30:41;;;;;;;11.75;5.45;;;;;;;4.62;100.00;102409.38;5049990;28;20045;-63
2024/01/29 05:33:29;;;;;;;11.57;5.38;;;;;;;4.62;100.00;102406.69;5078253;28;20067;-64
2024/01/29 05:36:17;;;;;;;9.20;5.13;;;;;;;4.65;100.00;102405.47;5059419;28;20768;-64
2024/01/29 05:39:05;;;;;;;9.18;5.22;;;;;;;4.63;100.00;102408.34;5079385;28;20048;-64
2024/01/29 05:41:53;;;;;;;10.77;5.57;;;;;;;4.60;100.00;102405.19;5078183;28;20051;-65
2024/01/29 05:44:41;;;;;;;9.02;5.25;;;;;;;4.60;100.00;102416.81;5073094;28;20524;-64
2024/01/29 05:47:29;;;;;;;9.80;5.15;;;;;;;4.58;100.00;102416.19;5060356;28;20199;-63
2024/01/29 05:50:17;;;;;;;9.25;4.97;;;;;;;4.60;100.00;102414.13;5067805;28;20416;-64
2024/01/29 05:53:05;;;;;;;9.75;5.40;;;;;;;4.59;100.00;102425.94;5074417;28;20090;-64
2024/01/29 05:55:53;;;;;;;9.68;5.25;;;;;;;4.59;100.00;102428.63;5075163;28;20178;-64
2024/01/29 05:58:45;;;;;;;10.38;5.15;;;;;;;4.58;100.00;102432.38;5076383;28;20420;-64
2024/01/29 06:01:33;;;;;;;8.32;4.85;;;;;;;4.61;100.00;102431.16;5074097;28;20088;-64
2024/01/29 06:04:21;;;;;;;9.77;4.97;;;;;;;4.62;100.00;102419.34;5048971;28;20032;-63
2024/01/29 06:07:09;;;;;;;14.70;5.20;;;;;;;4.61;100.00;102440.09;5075314;28;20043;-64
2024/01/29 06:09:58;;;;;;;10.25;5.22;;;;;;;4.62;100.00;102433.69;5059810;28;20496;-64
2024/01/29 06:12:47;;;;;;;9.45;5.00;;;;;;;4.65;100.00;102438.69;5074439;28;20131;-64
2024/01/29 06:15:35;;;;;;;8.82;4.70;;;;;;;4.65;100.00;102433.28;5071763;28;20045;-64
2024/01/29 06:18:23;;;;;;;7.30;4.97;;;;;;;4.67;100.00;102435.81;5072012;28;20102;-63
2024/01/29 06:21:11;;;;;;;8.10;4.75;;;;;;;4.65;100.00;102422.50;5054317;28;20466;-65
2024/01/29 06:23:59;;;;;;;10.57;5.90;;;;;;;4.67;100.00;102430.41;5040342;28;20049;-63
2024/01/29 06:26:47;;;;;;;11.15;5.60;;;;;;;4.65;100.00;102425.19;5058177;28;20048;-63
2024/01/29 06:29:36;;;;;;;8.63;5.32;;;;;;;4.61;100.00;102431.16;5058695;28;20131;-62
2024/01/29 06:32:24;;;;;;;10.45;5.32;;;;;;;4.56;100.00;102433.59;5076990;28;20040;-63
2024/01/29 06:35:12;;;;;;;12.82;6.20;;;;;;;4.55;100.00;102435.47;5060926;28;20037;-64
2024/01/29 06:38:02;;;;;;;11.05;5.50;;;;;;;4.57;100.00;102425.31;5074550;28;20083;-62
2024/01/29 06:40:50;;;;;;;11.23;5.53;;;;;;;4.60;100.00;102443.81;5075907;28;20051;-63
2024/01/29 06:43:38;;;;;;;8.25;4.45;;;;;;;4.65;100.00;102448.66;5075432;28;20052;-64
2024/01/29 06:46:28;;;;;;;8.15;4.65;;;;;;;4.68;100.00;102441.00;5078602;28;20543;-65
2024/01/29 06:49:27;;;;;;;7.65;4.75;;;;;;;4.72;100.00;102435.25;5072987;28;20040;-65
2024/01/29 06:52:15;;;;;;;8.95;4.82;;;;;;;4.73;100.00;102442.31;5060544;28;20049;-63
2024/01/29 06:55:06;;;;;;;8.13;4.80;;;;;;;4.76;100.00;102445.44;5073365;28;20053;-64
2024/01/29 06:57:54;;;;;;;7.85;4.35;;;;;;;4.82;100.00;102449.28;5055733;28;20052;-64
2024/01/29 07:00:42;;;;;;;9.23;5.03;;;;;;;4.83;100.00;102448.25;5074197;28;20074;-64
2024/01/29 07:03:30;;;;;;;9.68;4.50;;;;;;;4.83;100.00;102448.25;5056946;28;20051;-65
2024/01/29 07:06:19;;;;;;;7.47;3.97;;;;;;;4.81;100.00;102453.00;5039435;28;20434;-64
2024/01/29 07:09:07;;;;;;;7.10;4.53;;;;;;;4.84;100.00;102463.44;4347497;28;10000353;-63
2024/01/29 07:11:55;;;;;;;8.60;4.70;;;;;;;4.83;100.00;102461.75;5069607;28;20127;-65
2024/01/29 07:14:43;;;;;;;10.80;6.32;;;;;;;4.84;100.00;102468.84;5054376;28;20064;-65
2024/01/29 07:17:31;;;;;;;8.80;4.82;;;;;;;4.82;100.00;102471.72;5062932;28;20044;-65
2024/01/29 07:20:20;;;;;;;7.88;4.10;;;;;;;4.85;100.00;102471.31;5068838;28;20143;-65
2024/01/29 07:23:08;;;;;;;9.57;5.20;;;;;;;4.85;100.00;102482.13;5041919;28;20052;-64
2024/01/29 07:25:57;;;;;;;8.35;4.97;;;;;;;4.85;100.00;102484.00;5068521;28;20056;-65
2024/01/29 07:28:45;;;;;;;8.82;4.93;;;;;;;4.85;100.00;102489.41;5069039;28;20055;-64
2024/01/29 07:31:33;;;;;;;9.10;4.70;;;;;;;4.85;100.00;102486.69;5069135;28;20040;-64
2024/01/29 07:34:22;;;;;;;11.15;5.53;;;;;;;4.86;100.00;102491.94;5035264;28;20041;-61
2024/01/29 07:37:11;;;;;;;8.93;5.25;;;;;;;4.89;100.00;102493.41;5036708;28;20385;-63
2024/01/29 07:40:00;;;;;;;10.98;5.55;;;;;;;4.90;100.00;102500.47;5034832;28;20049;-65
2024/01/29 07:42:50;;;;;;;9.70;5.70;;;;;;;4.89;100.00;102496.09;5065273;28;20122;-64
2024/01/29 07:45:38;;;;;;;9.60;5.40;;;;;;;4.90;100.00;102504.00;5072214;28;20576;-65
2024/01/29 07:48:26;;;;;;;11.43;5.82;;;;;;;4.91;100.00;102500.28;5058736;28;20736;-65
2024/01/29 07:51:15;;;;;;;12.80;5.55;;;;;;;4.91;100.00;102502.16;5065848;28;20044;-64
2024/01/29 07:54:03;;;;;;;9.50;4.75;;;;;;;4.94;100.00;102507.19;5054227;28;20497;-63
2024/01/29 07:56:51;;;;;;;9.50;5.55;;;;;;;4.94;100.00;102512.59;5039269;28;20406;-63
2024/01/29 07:59:40;;;;;;;9.93;5.80;;;;;;;4.96;100.00;102510.53;5064700;28;20052;-63
2024/01/29 08:02:28;;;;;;;10.90;5.78;;;;;;;4.98;100.00;102508.50;5052424;28;20049;-64
2024/01/29 08:05:16;;;;;;;10.20;5.30;;;;;;;5.00;100.00;102506.41;5049085;28;20047;-64
2024/01/29 08:08:05;;;;;;;8.55;5.38;;;;;;;5.00;100.00;102506.41;5062615;28;20044;-64
2024/01/29 08:10:53;;;;;;;10.48;5.10;;;;;;;5.02;100.00;102509.75;5052698;28;20098;-63
2024/01/29 08:13:41;;;;;;;8.10;4.63;;;;;;;5.05;100.00;102508.53;5033646;28;20041;-63
2024/01/29 08:16:29;;;;;;;9.73;5.18;;;;;;;5.06;100.00;102505.66;5047491;28;20045;-62
2024/01/29 08:19:17;;;;;;;9.50;5.13;;;;;;;5.07;100.00;102501.91;5061364;28;20040;-64
2024/01/29 08:22:08;;;;;;;8.55;4.80;;;;;;;5.08;100.00;102506.31;5053618;28;20053;-63
2024/01/29 08:24:57;;;;;;;7.95;4.22;;;;;;;5.12;100.00;102513.03;5039236;28;20133;-63
2024/01/29 08:27:45;;;;;;;8.00;4.65;;;;;;;5.16;100.00;102512.63;5068098;28;20045;-64
2024/01/29 08:30:33;;;;;;;8.98;4.80;;;;;;;5.16;100.00;102513.47;5064805;28;20048;-63
2024/01/29 08:33:21;;;;;;;10.65;4.63;;;;;;;5.25;100.00;102519.59;5066780;28;20517;-64
2024/01/29 08:36:10;;;;;;;10.25;4.70;;;;;;;5.26;100.00;102521.25;5066441;28;20102;-65
2024/01/29 08:38:58;;;;;;;8.95;5.35;;;;;;;5.27;100.00;102522.97;5069008;28;20040;-64
2024/01/29 08:41:46;;;;;;;11.50;5.93;;;;;;;5.22;100.00;102525.38;5070345;28;20048;-62
2024/01/29 08:44:36;;;;;;;12.32;5.68;;;;;;;5.18;100.00;102529.50;5068917;28;20186;-63
2024/01/29 08:47:24;;;;;;;10.40;5.63;;;;;;;5.21;100.00;102529.09;5070978;28;20420;-62
2024/01/29 08:50:12;;;;;;;12.20;6.22;;;;;;;5.19;100.00;102521.19;5070416;28;20040;-62
2024/01/29 08:53:01;;;;;;;10.23;5.40;;;;;;;5.20;100.00;102525.56;5056333;28;20052;-64
2024/01/29 08:55:48;;;;;;;13.18;5.75;;;;;;;5.24;100.00;102524.19;5042624;28;20180;-64
2024/01/29 08:58:36;;;;;;;11.93;6.28;;;;;;;5.27;100.00;102522.97;5096182;28;20048;-64
2024/01/29 09:01:25;;;;;;;17.88;5.90;;;;;;;5.31;100.00;102521.53;5081197;28;20051;-63
2024/01/29 09:04:13;;;;;;;11.35;5.78;;;;;;;5.33;100.00;102511.38;5080882;28;20487;-65
2024/01/29 09:07:01;;;;;;;10.43;6.07;;;;;;;5.34;100.00;102513.88;5080096;28;20493;-64
2024/01/29 09:09:50;;;;;;;9.35;5.60;;;;;;;5.35;100.00;102509.31;5071621;28;20048;-63
2024/01/29 09:12:38;;;;;;;11.80;5.65;;;;;;;5.37;100.00;102509.13;5094777;28;20040;-63
2024/01/29 09:15:26;;;;;;;9.48;5.40;;;;;;;5.38;100.00;102511.63;5079115;28;20044;-63
2024/01/29 09:18:14;;;;;;;8.82;5.50;;;;;;;5.40;100.00;102512.28;5066589;28;20052;-62
2024/01/29 09:21:03;;;;;;;13.02;5.40;;;;;;;5.44;100.00;102508.16;5083016;28;20055;-63
2024/01/29 09:23:51;;;;;;;10.43;6.07;;;;;;;5.45;100.00;102511.69;5046856;28;20044;-64
2024/01/29 09:26:39;;;;;;;11.02;5.65;;;;;;;5.46;100.00;102508.81;5059535;28;20044;-63
2024/01/29 09:29:27;;;;;;;10.15;5.40;;;;;;;5.46;100.00;102503.41;5075441;28;20623;-63
2024/01/29 09:32:15;;;;;;;9.82;6.07;;;;;;;5.50;100.00;102515.50;5090865;28;20060;-64
2024/01/29 09:35:04;;;;;;;15.07;5.72;;;;;;;5.54;100.00;102514.09;5101380;28;20040;-64
2024/01/29 09:37:52;;;;;;;11.45;5.63;;;;;;;5.60;100.00;102514.34;5072225;28;20044;-63
2024/01/29 09:40:44;;;;;;;13.20;6.53;;;;;;;5.65;100.00;102514.59;5067245;28;20051;-65
2024/01/29 09:43:35;;;;;;;13.18;6.13;;;;;;;5.67;100.00;102523.34;5070783;28;20052;-64
2024/01/29 09:46:23;;;;;;;11.07;5.65;;;;;;;5.71;100.00;102524.66;5062215;28;20049;-64
2024/01/29 09:49:12;;;;;;;14.27;5.55;;;;;;;5.76;100.00;102527.59;5061280;28;20077;-63
2024/01/29 09:52:02;;;;;;;10.90;6.20;;;;;;;5.78;100.00;102530.13;5055014;28;20497;-62
2024/01/29 09:54:51;;;;;;;12.05;5.40;;;;;;;5.77;100.00;102534.69;5040378;28;20511;-62
2024/01/29 09:57:39;;;;;;;9.60;5.32;;;;;;;5.77;100.00;102534.69;5039478;28;20041;-63
2024/01/29 10:00:27;;;;;;;10.65;5.60;;;;;;;5.83;100.00;102536.63;5027547;28;20045;-64
2024/01/29 10:03:33;;;;;;;10.93;5.53;;;;;;;5.87;100.00;102535.22;5041154;28;20041;-63
2024/01/29 10:06:21;;;;;;;20.13;6.50;;;;;;;6.00;100.00;102536.38;5069697;28;20601;-65
2024/01/29 10:09:11;;;;;;;13.40;5.68;;;;;;;6.02;100.00;102539.75;5073916;28;20106;-64
2024/01/29 10:11:59;;;;;;;11.63;6.03;;;;;;;6.08;100.00;102541.66;5060062;28;20052;-64
2024/01/29 10:14:47;;;;;;;10.43;5.47;;;;;;;6.04;100.00;102541.22;5045816;28;20052;-64
2024/01/29 10:17:35;;;;;;;9.50;5.32;;;;;;;6.01;100.00;102547.00;5076729;28;20056;-63
2024/01/29 10:20:24;;;;;;;11.15;5.70;;;;;;;6.07;100.00;102545.41;5065842;28;20052;-63
2024/01/29 10:23:12;;;;;;;13.00;5.20;;;;;;;6.11;100.00;102547.53;5095259;28;20525;-64
2024/01/29 10:26:00;;;;;;;13.48;6.32;;;;;;;6.14;100.00;102551.69;5079298;28;20052;-64
2024/01/29 10:29:01;;;;;;;12.27;6.25;;;;;;;6.17;100.00;102552.13;5065906;28;20535;-64
2024/01/29 10:31:49;;;;;;;12.50;5.72;;;;;;;6.24;100.00;102552.19;5078527;28;20072;-63
2024/01/29 10:34:37;;;;;;;11.45;5.47;;;;;;;6.25;100.00;102553.84;5045146;28;20156;-64
2024/01/29 10:37:27;;;;;;;9.80;5.35;;;;;;;6.34;100.00;102541.84;5058067;28;20052;-63
2024/01/29 10:40:18;;;;;;;10.77;5.88;;;;;;;6.34;100.00;102541.84;5072948;28;20052;-62
2024/01/29 10:43:06;;;;;;;10.75;5.65;;;;;;;6.38;100.00;102551.25;5048134;28;20044;-63
2024/01/29 10:45:55;;;;;;;11.13;6.85;;;;;;;6.46;100.00;102549.44;5052016;28;20484;-64
2024/01/29 10:48:43;;;;;;;9.60;6.22;;;;;;;6.36;100.00;102557.91;5054409;28;20564;-63
2024/01/29 10:51:33;;;;;;;12.25;7.47;;;;;;;6.32;100.00;102554.75;5072607;28;20048;-63
2024/01/29 10:54:21;;;;;;;11.25;7.07;;;;;;;6.31;100.00;102555.78;5039913;28;20176;-63
2024/01/29 10:57:10;;;;;;;12.55;6.65;;;;;;;6.39;100.00;102563.75;5072509;28;20079;-63
2024/01/29 10:59:59;;;;;;;12.25;6.85;;;;;;;6.56;100.00;102556.16;5060858;28;20155;-64
2024/01/29 11:02:49;;;;;;;10.80;6.93;;;;;;;6.53;100.00;102561.97;5064227;28;20060;-65
2024/01/29 11:05:38;;;;;;;12.73;5.90;;;;;;;6.68;100.00;102564.56;5084715;28;20044;-65
2024/01/29 11:08:31;;;;;;;14.15;7.05;;;;;;;6.73;100.00;102564.81;5058642;28;20174;-64
2024/01/29 11:11:19;;;;;;;11.52;6.60;;;;;;;6.79;100.00;102558.59;5044872;28;20044;-64
2024/01/29 11:14:10;;;;;;;14.00;6.70;;;;;;;6.81;100.00;102555.69;5038144;28;20491;-65
2024/01/29 11:16:58;;;;;;;10.10;5.97;;;;;;;6.79;100.00;102558.59;5037452;28;20056;-65
2024/01/29 11:19:51;;;;;;;10.35;6.80;;;;;;;6.77;100.00;102547.13;5050349;28;20061;-66
2024/01/29 11:22:40;;;;;;;13.10;6.88;;;;;;;6.84;100.00;102547.16;5092151;28;20040;-65
2024/01/29 11:25:29;;;;;;;13.05;6.40;;;;;;;7.07;100.00;102540.59;5079441;28;20051;-66
2024/01/29 11:28:17;;;;;;;14.23;5.60;;;;;;;7.11;100.00;102542.69;5041653;28;20163;-65
2024/01/29 11:31:13;;;;;;;12.07;6.00;;;;;;;7.11;100.00;102539.97;5059631;28;20052;-66
2024/01/29 11:34:05;;;;;;;12.05;6.53;;;;;;;7.19;100.00;102536.25;5051760;28;20056;-65
2024/01/29 11:36:54;;;;;;;11.20;7.05;;;;;;;7.15;100.00;102535.00;5049898;28;20047;-66
2024/01/29 11:39:44;;;;;;;12.00;7.78;;;;;;;7.11;100.00;102542.69;5055498;28;20412;-64
2024/01/29 11:42:33;;;;;;;13.82;7.75;;;;;;;7.17;100.00;102541.91;5070717;28;20570;-64
2024/01/29 11:45:22;;;;;;;10.48;6.28;;;;;;;7.15;100.00;102537.72;5059070;28;20048;-64
2024/01/29 11:48:14;;;;;;;11.65;7.05;;;;;;;7.19;100.00;102539.81;4351170;28;10000344;-64
2024/01/29 11:51:02;;;;;;;11.02;6.35;;;;;;;7.36;100.00;102539.44;5069267;28;20131;-65
2024/01/29 11:53:51;;;;;;;13.68;6.43;;;;;;;7.40;100.00;102529.84;5067140;28;20099;-63
2024/01/29 11:56:39;;;;;;;10.73;6.97;;;;;;;7.35;100.00;102527.75;5068742;28;20041;-64
2024/01/29 11:59:27;;;;;;;11.43;6.82;;;;;;;7.29;100.00;102522.31;5025480;28;20049;-64
2024/01/29 12:02:15;;;;;;;12.27;6.93;;;;;;;7.31;100.00;102522.94;5068788;28;20441;-64
2024/01/29 12:05:03;;;;;;;12.50;6.72;;;;;;;7.36;100.00;102523.16;5054106;28;20040;-60
2024/01/29 12:07:52;;;;;;;14.63;8.40;;;;;;;7.28;100.00;102526.91;5053846;28;20132;-64
2024/01/29 12:10:41;;;;;;;16.30;9.35;;;;;;;7.27;100.00;102524.41;5065674;28;20049;-63
2024/01/29 12:13:29;;;;;;;13.80;7.80;;;;;;;7.30;100.00;102518.56;5077523;28;20074;-64
2024/01/29 12:16:17;;;;;;;12.90;8.00;;;;;;;7.31;100.00;102512.09;5077853;28;20119;-63
2024/01/29 12:19:06;;;;;;;12.55;8.00;;;;;;;7.35;100.00;102521.50;5057132;28;20056;-63
2024/01/29 12:21:54;;;;;;;14.23;8.20;;;;;;;7.36;100.00;102528.59;5068257;28;20381;-67
2024/01/29 12:24:42;;;;;;;13.98;8.50;;;;;;;7.38;100.00;102521.91;5070342;28;20049;-64
2024/01/29 12:27:30;;;;;;;12.55;8.10;;;;;;;7.41;100.00;102516.09;5072471;28;20468;-63
2024/01/29 12:30:19;;;;;;;14.35;8.57;;;;;;;7.41;100.00;102512.56;5056160;28;20049;-63
2024/01/29 12:33:07;;;;;;;15.88;7.72;;;;;;;7.45;100.00;102516.50;5072553;28;20050;-63
2024/01/29 12:36:14;;;;;;;14.02;7.85;;;;;;;7.49;100.00;102511.53;5037397;28;20464;-63
2024/01/29 12:39:03;;;;;;;11.68;6.97;;;;;;;7.53;100.00;102520.91;5037194;28;20419;-62
2024/01/29 12:41:51;;;;;;;11.68;7.30;;;;;;;7.54;100.00;102515.28;5040731;28;20049;-64
2024/01/29 12:44:39;;;;;;;13.80;7.00;;;;;;;7.61;100.00;102518.84;5056067;28;20044;-64
2024/01/29 12:47:27;;;;;;;12.45;6.88;;;;;;;7.67;100.00;102514.47;5069617;28;20082;-63
2024/01/29 12:50:17;;;;;;;13.05;6.88;;;;;;;7.71;100.00;102517.63;5069592;28;20143;-63
2024/01/29 12:53:10;;;;;;;12.27;7.20;;;;;;;7.71;100.00;102521.16;5070193;28;20059;-63
2024/01/29 12:55:58;;;;;;;10.65;6.38;;;;;;;7.71;100.00;102517.63;5067504;28;20044;-64
2024/01/29 12:58:46;;;;;;;12.90;7.40;;;;;;;7.75;100.00;102521.59;5090687;28;20044;-64